sensor_id;sensor_type;location;lat;lon;timestamp;P1;durP1;ratioP1;P2;durP2;ratioP2
36243;SDS011;22284;49.956;19.816;2022-12-29T00:00:59;61.47;;;29.10;;
36243;SDS011;22284;49.956;19.816;2022-12-29T00:04:02;66.77;;;29.87;;
36243;SDS011;22284;49.956;19.816;2022-12-29T00:07:04;64.33;;;31.10;;
36243;SDS011;22284;49.956;19.816;2022-12-29T00:10:06;73.80;;;32.30;;
36243;SDS011;22284;49.956;19.816;2022-12-29T00:13:08;69.07;;;31.60;;
36243;SDS011;22284;49.956;19.816;2022-12-29T00:16:28;60.53;;;29.47;;
36243;SDS011;22284;49.956;19.816;2022-12-29T00:19:30;61.00;;;29.70;;
36243;SDS011;22284;49.956;19.816;2022-12-29T00:22:49;63.10;;;30.37;;
36243;SDS011;22284;49.956;19.816;2022-12-29T00:26:13;63.60;;;29.70;;
36243;SDS011;22284;49.956;19.816;2022-12-29T00:29:35;61.93;;;30.97;;
36243;SDS011;22284;49.956;19.816;2022-12-29T00:32:55;63.83;;;30.23;;
36243;SDS011;22284;49.956;19.816;2022-12-29T00:39:35;61.47;;;31.03;;
36243;SDS011;22284;49.956;19.816;2022-12-29T00:42:54;66.97;;;32.00;;
36243;SDS011;22284;49.956;19.816;2022-12-29T00:46:14;67.47;;;31.97;;
36243;SDS011;22284;49.956;19.816;2022-12-29T00:49:15;63.93;;;31.40;;
36243;SDS011;22284;49.956;19.816;2022-12-29T00:52:31;60.03;;;29.70;;
36243;SDS011;22284;49.956;19.816;2022-12-29T00:55:35;60.77;;;29.77;;
36243;SDS011;22284;49.956;19.816;2022-12-29T00:58:40;61.30;;;29.03;;
36243;SDS011;22284;49.956;19.816;2022-12-29T01:01:41;58.67;;;27.33;;
36243;SDS011;22284;49.956;19.816;2022-12-29T01:04:42;59.20;;;28.90;;
36243;SDS011;22284;49.956;19.816;2022-12-29T01:07:43;58.07;;;25.97;;
36243;SDS011;22284;49.956;19.816;2022-12-29T01:10:44;37.87;;;17.23;;
36243;SDS011;22284;49.956;19.816;2022-12-29T01:13:45;24.10;;;10.23;;
36243;SDS011;22284;49.956;19.816;2022-12-29T01:16:46;15.90;;;6.47;;
36243;SDS011;22284;49.956;19.816;2022-12-29T01:19:48;18.77;;;7.47;;
36243;SDS011;22284;49.956;19.816;2022-12-29T01:22:49;32.37;;;15.63;;
36243;SDS011;22284;49.956;19.816;2022-12-29T01:25:50;37.73;;;17.60;;
36243;SDS011;22284;49.956;19.816;2022-12-29T01:28:51;47.63;;;24.37;;
36243;SDS011;22284;49.956;19.816;2022-12-29T01:31:52;56.80;;;27.37;;
36243;SDS011;22284;49.956;19.816;2022-12-29T01:34:53;56.50;;;28.43;;
36243;SDS011;22284;49.956;19.816;2022-12-29T01:38:00;56.50;;;28.43;;
36243;SDS011;22284;49.956;19.816;2022-12-29T01:41:01;61.70;;;30.13;;
36243;SDS011;22284;49.956;19.816;2022-12-29T01:44:39;61.47;;;29.03;;
36243;SDS011;22284;49.956;19.816;2022-12-29T01:47:55;62.20;;;29.80;;
36243;SDS011;22284;49.956;19.816;2022-12-29T01:51:02;60.17;;;27.70;;
36243;SDS011;22284;49.956;19.816;2022-12-29T01:54:04;59.93;;;28.20;;
36243;SDS011;22284;49.956;19.816;2022-12-29T01:57:11;59.93;;;29.87;;
36243;SDS011;22284;49.956;19.816;2022-12-29T02:00:19;59.63;;;27.33;;
36243;SDS011;22284;49.956;19.816;2022-12-29T02:03:20;56.47;;;26.63;;
36243;SDS011;22284;49.956;19.816;2022-12-29T02:06:31;57.97;;;26.07;;
36243;SDS011;22284;49.956;19.816;2022-12-29T02:09:35;52.10;;;25.80;;
36243;SDS011;22284;49.956;19.816;2022-12-29T02:12:37;60.17;;;27.83;;
36243;SDS011;22284;49.956;19.816;2022-12-29T02:26:02;56.47;;;26.70;;
36243;SDS011;22284;49.956;19.816;2022-12-29T02:39:50;49.10;;;24.37;;
36243;SDS011;22284;49.956;19.816;2022-12-29T02:46:35;50.77;;;23.43;;
36243;SDS011;22284;49.956;19.816;2022-12-29T02:53:22;48.10;;;22.53;;
36243;SDS011;22284;49.956;19.816;2022-12-29T02:56:44;41.13;;;20.03;;
36243;SDS011;22284;49.956;19.816;2022-12-29T02:59:44;40.47;;;18.63;;
36243;SDS011;22284;49.956;19.816;2022-12-29T03:03:14;35.80;;;18.03;;
36243;SDS011;22284;49.956;19.816;2022-12-29T03:09:59;39.63;;;20.00;;
36243;SDS011;22284;49.956;19.816;2022-12-29T03:19:59;35.33;;;14.10;;
36243;SDS011;22284;49.956;19.816;2022-12-29T03:23:07;33.57;;;16.70;;
36243;SDS011;22284;49.956;19.816;2022-12-29T03:26:11;35.73;;;15.78;;
36243;SDS011;22284;49.956;19.816;2022-12-29T03:32:16;51.97;;;25.93;;
36243;SDS011;22284;49.956;19.816;2022-12-29T03:35:19;52.10;;;23.57;;
36243;SDS011;22284;49.956;19.816;2022-12-29T03:41:42;34.77;;;17.23;;
36243;SDS011;22284;49.956;19.816;2022-12-29T03:44:45;32.13;;;15.32;;
36243;SDS011;22284;49.956;19.816;2022-12-29T03:47:47;32.33;;;15.90;;
36243;SDS011;22284;49.956;19.816;2022-12-29T03:50:49;31.10;;;15.00;;
36243;SDS011;22284;49.956;19.816;2022-12-29T03:53:50;34.60;;;16.00;;
36243;SDS011;22284;49.956;19.816;2022-12-29T03:56:51;31.13;;;14.57;;
36243;SDS011;22284;49.956;19.816;2022-12-29T03:59:52;28.83;;;14.93;;
36243;SDS011;22284;49.956;19.816;2022-12-29T04:02:53;30.33;;;13.17;;
36243;SDS011;22284;49.956;19.816;2022-12-29T04:05:55;26.00;;;11.27;;
36243;SDS011;22284;49.956;19.816;2022-12-29T04:08:56;22.47;;;9.97;;
36243;SDS011;22284;49.956;19.816;2022-12-29T04:11:57;24.23;;;10.63;;
36243;SDS011;22284;49.956;19.816;2022-12-29T04:14:58;25.03;;;10.80;;
36243;SDS011;22284;49.956;19.816;2022-12-29T04:17:59;26.43;;;11.70;;
36243;SDS011;22284;49.956;19.816;2022-12-29T04:21:00;21.97;;;9.40;;
36243;SDS011;22284;49.956;19.816;2022-12-29T04:24:03;19.77;;;8.93;;
36243;SDS011;22284;49.956;19.816;2022-12-29T04:27:07;18.93;;;8.20;;
36243;SDS011;22284;49.956;19.816;2022-12-29T04:30:08;16.63;;;6.40;;
36243;SDS011;22284;49.956;19.816;2022-12-29T04:33:11;15.30;;;6.33;;
36243;SDS011;22284;49.956;19.816;2022-12-29T04:36:12;24.50;;;11.07;;
36243;SDS011;22284;49.956;19.816;2022-12-29T04:39:13;24.37;;;9.43;;
36243;SDS011;22284;49.956;19.816;2022-12-29T04:42:14;27.23;;;12.50;;
36243;SDS011;22284;49.956;19.816;2022-12-29T04:45:15;29.80;;;13.83;;
36243;SDS011;22284;49.956;19.816;2022-12-29T04:48:16;27.20;;;12.80;;
36243;SDS011;22284;49.956;19.816;2022-12-29T04:51:18;33.37;;;14.83;;
36243;SDS011;22284;49.956;19.816;2022-12-29T04:54:19;26.30;;;13.93;;
36243;SDS011;22284;49.956;19.816;2022-12-29T04:57:20;29.90;;;12.97;;
36243;SDS011;22284;49.956;19.816;2022-12-29T05:00:21;19.87;;;8.53;;
36243;SDS011;22284;49.956;19.816;2022-12-29T05:03:22;21.30;;;9.20;;
36243;SDS011;22284;49.956;19.816;2022-12-29T05:06:23;17.47;;;7.77;;
36243;SDS011;22284;49.956;19.816;2022-12-29T05:09:24;18.00;;;8.30;;
36243;SDS011;22284;49.956;19.816;2022-12-29T05:12:25;20.57;;;8.77;;
36243;SDS011;22284;49.956;19.816;2022-12-29T05:15:32;15.00;;;7.10;;
36243;SDS011;22284;49.956;19.816;2022-12-29T05:18:33;18.10;;;7.90;;
36243;SDS011;22284;49.956;19.816;2022-12-29T05:21:35;20.63;;;9.30;;
36243;SDS011;22284;49.956;19.816;2022-12-29T05:24:36;11.13;;;5.07;;
36243;SDS011;22284;49.956;19.816;2022-12-29T05:27:37;8.60;;;3.90;;
36243;SDS011;22284;49.956;19.816;2022-12-29T05:30:38;9.83;;;4.47;;
36243;SDS011;22284;49.956;19.816;2022-12-29T05:33:39;17.73;;;8.97;;
36243;SDS011;22284;49.956;19.816;2022-12-29T05:36:40;17.47;;;8.07;;
36243;SDS011;22284;49.956;19.816;2022-12-29T05:39:41;14.03;;;5.70;;
36243;SDS011;22284;49.956;19.816;2022-12-29T05:42:42;15.10;;;6.57;;
36243;SDS011;22284;49.956;19.816;2022-12-29T05:45:43;7.77;;;3.73;;
36243;SDS011;22284;49.956;19.816;2022-12-29T05:48:44;9.03;;;3.83;;
36243;SDS011;22284;49.956;19.816;2022-12-29T05:55:46;23.53;;;12.03;;
36243;SDS011;22284;49.956;19.816;2022-12-29T05:58:48;24.33;;;11.73;;
36243;SDS011;22284;49.956;19.816;2022-12-29T06:01:49;26.50;;;12.03;;
36243;SDS011;22284;49.956;19.816;2022-12-29T06:04:50;26.57;;;13.27;;
36243;SDS011;22284;49.956;19.816;2022-12-29T06:07:51;29.93;;;14.80;;
36243;SDS011;22284;49.956;19.816;2022-12-29T06:10:52;27.37;;;13.63;;
36243;SDS011;22284;49.956;19.816;2022-12-29T06:13:53;26.87;;;13.30;;
36243;SDS011;22284;49.956;19.816;2022-12-29T06:16:54;27.87;;;14.23;;
36243;SDS011;22284;49.956;19.816;2022-12-29T06:19:55;28.87;;;13.73;;
36243;SDS011;22284;49.956;19.816;2022-12-29T06:22:56;28.00;;;13.73;;
36243;SDS011;22284;49.956;19.816;2022-12-29T06:25:58;28.23;;;13.37;;
36243;SDS011;22284;49.956;19.816;2022-12-29T06:28:59;27.27;;;13.07;;
36243;SDS011;22284;49.956;19.816;2022-12-29T06:32:00;29.90;;;13.83;;
36243;SDS011;22284;49.956;19.816;2022-12-29T06:35:02;29.63;;;13.67;;
36243;SDS011;22284;49.956;19.816;2022-12-29T06:38:04;28.75;;;14.75;;
36243;SDS011;22284;49.956;19.816;2022-12-29T06:41:06;32.20;;;14.43;;
36243;SDS011;22284;49.956;19.816;2022-12-29T06:44:07;33.37;;;14.27;;
36243;SDS011;22284;49.956;19.816;2022-12-29T06:47:08;29.30;;;12.70;;
36243;SDS011;22284;49.956;19.816;2022-12-29T06:50:09;31.20;;;13.50;;
36243;SDS011;22284;49.956;19.816;2022-12-29T06:53:11;25.57;;;12.23;;
36243;SDS011;22284;49.956;19.816;2022-12-29T06:56:12;24.93;;;10.57;;
36243;SDS011;22284;49.956;19.816;2022-12-29T06:59:13;21.47;;;9.40;;
36243;SDS011;22284;49.956;19.816;2022-12-29T07:02:14;17.77;;;7.93;;
36243;SDS011;22284;49.956;19.816;2022-12-29T07:05:17;15.88;;;6.85;;
36243;SDS011;22284;49.956;19.816;2022-12-29T07:08:18;16.70;;;5.93;;
36243;SDS011;22284;49.956;19.816;2022-12-29T07:11:20;18.00;;;8.60;;
36243;SDS011;22284;49.956;19.816;2022-12-29T07:14:22;16.87;;;6.97;;
36243;SDS011;22284;49.956;19.816;2022-12-29T07:17:23;14.27;;;6.10;;
36243;SDS011;22284;49.956;19.816;2022-12-29T07:20:24;16.43;;;5.83;;
36243;SDS011;22284;49.956;19.816;2022-12-29T07:23:25;14.87;;;5.70;;
36243;SDS011;22284;49.956;19.816;2022-12-29T07:26:26;15.10;;;6.20;;
36243;SDS011;22284;49.956;19.816;2022-12-29T07:29:28;17.50;;;6.97;;
36243;SDS011;22284;49.956;19.816;2022-12-29T07:32:31;15.70;;;5.87;;
36243;SDS011;22284;49.956;19.816;2022-12-29T07:35:35;14.23;;;5.90;;
36243;SDS011;22284;49.956;19.816;2022-12-29T07:38:36;13.50;;;5.83;;
36243;SDS011;22284;49.956;19.816;2022-12-29T07:41:37;13.27;;;5.43;;
36243;SDS011;22284;49.956;19.816;2022-12-29T07:44:38;10.77;;;4.60;;
36243;SDS011;22284;49.956;19.816;2022-12-29T07:47:39;10.83;;;4.07;;
36243;SDS011;22284;49.956;19.816;2022-12-29T07:50:40;10.73;;;4.20;;
36243;SDS011;22284;49.956;19.816;2022-12-29T07:53:41;8.73;;;4.00;;
36243;SDS011;22284;49.956;19.816;2022-12-29T07:56:42;9.53;;;4.87;;
36243;SDS011;22284;49.956;19.816;2022-12-29T07:59:43;9.77;;;4.60;;
36243;SDS011;22284;49.956;19.816;2022-12-29T08:02:45;9.27;;;4.23;;
36243;SDS011;22284;49.956;19.816;2022-12-29T08:05:46;9.30;;;4.17;;
36243;SDS011;22284;49.956;19.816;2022-12-29T08:08:47;10.13;;;4.40;;
36243;SDS011;22284;49.956;19.816;2022-12-29T08:11:48;16.40;;;7.77;;
36243;SDS011;22284;49.956;19.816;2022-12-29T08:14:49;17.17;;;7.73;;
36243;SDS011;22284;49.956;19.816;2022-12-29T08:17:50;12.30;;;5.90;;
36243;SDS011;22284;49.956;19.816;2022-12-29T08:20:51;11.47;;;5.60;;
36243;SDS011;22284;49.956;19.816;2022-12-29T08:23:52;10.73;;;5.20;;
36243;SDS011;22284;49.956;19.816;2022-12-29T08:26:54;33.58;;;14.20;;
36243;SDS011;22284;49.956;19.816;2022-12-29T08:29:56;26.68;;;10.75;;
36243;SDS011;22284;49.956;19.816;2022-12-29T08:32:57;25.43;;;10.88;;
36243;SDS011;22284;49.956;19.816;2022-12-29T08:36:05;23.97;;;10.20;;
36243;SDS011;22284;49.956;19.816;2022-12-29T08:39:08;26.00;;;10.87;;
36243;SDS011;22284;49.956;19.816;2022-12-29T08:42:09;20.90;;;9.03;;
36243;SDS011;22284;49.956;19.816;2022-12-29T08:45:10;19.40;;;8.33;;
36243;SDS011;22284;49.956;19.816;2022-12-29T08:48:11;14.20;;;7.40;;
36243;SDS011;22284;49.956;19.816;2022-12-29T08:51:12;15.17;;;7.30;;
36243;SDS011;22284;49.956;19.816;2022-12-29T08:54:13;22.50;;;10.13;;
36243;SDS011;22284;49.956;19.816;2022-12-29T08:57:14;21.33;;;10.95;;
36243;SDS011;22284;49.956;19.816;2022-12-29T09:00:15;27.83;;;14.07;;
36243;SDS011;22284;49.956;19.816;2022-12-29T09:03:17;29.40;;;14.33;;
36243;SDS011;22284;49.956;19.816;2022-12-29T09:06:18;37.20;;;20.03;;
36243;SDS011;22284;49.956;19.816;2022-12-29T09:09:19;42.43;;;23.03;;
36243;SDS011;22284;49.956;19.816;2022-12-29T09:12:21;44.38;;;24.32;;
36243;SDS011;22284;49.956;19.816;2022-12-29T09:15:22;40.20;;;22.07;;
36243;SDS011;22284;49.956;19.816;2022-12-29T09:18:23;40.30;;;21.77;;
36243;SDS011;22284;49.956;19.816;2022-12-29T09:21:24;39.67;;;21.83;;
36243;SDS011;22284;49.956;19.816;2022-12-29T09:24:25;38.70;;;20.73;;
36243;SDS011;22284;49.956;19.816;2022-12-29T09:27:26;39.57;;;21.10;;
36243;SDS011;22284;49.956;19.816;2022-12-29T09:30:27;41.77;;;21.87;;
36243;SDS011;22284;49.956;19.816;2022-12-29T09:33:28;38.67;;;20.20;;
36243;SDS011;22284;49.956;19.816;2022-12-29T09:36:29;38.37;;;20.20;;
36243;SDS011;22284;49.956;19.816;2022-12-29T09:39:31;36.90;;;19.55;;
36243;SDS011;22284;49.956;19.816;2022-12-29T09:42:38;35.73;;;18.35;;
36243;SDS011;22284;49.956;19.816;2022-12-29T09:45:51;39.13;;;18.25;;
36243;SDS011;22284;49.956;19.816;2022-12-29T09:49:04;31.10;;;15.88;;
36243;SDS011;22284;49.956;19.816;2022-12-29T09:52:22;26.15;;;12.65;;
36243;SDS011;22284;49.956;19.816;2022-12-29T09:55:39;20.15;;;8.50;;
36243;SDS011;22284;49.956;19.816;2022-12-29T09:58:56;30.90;;;15.40;;
36243;SDS011;22284;49.956;19.816;2022-12-29T10:18:52;23.12;;;10.75;;
36243;SDS011;22284;49.956;19.816;2022-12-29T10:22:08;21.62;;;9.68;;
36243;SDS011;22284;49.956;19.816;2022-12-29T10:25:15;20.45;;;9.10;;
36243;SDS011;22284;49.956;19.816;2022-12-29T10:28:22;19.32;;;8.68;;
36243;SDS011;22284;49.956;19.816;2022-12-29T10:35:23;17.60;;;7.83;;
36243;SDS011;22284;49.956;19.816;2022-12-29T10:38:35;17.48;;;7.03;;
36243;SDS011;22284;49.956;19.816;2022-12-29T10:41:39;14.63;;;6.95;;
36243;SDS011;22284;49.956;19.816;2022-12-29T10:45:00;16.25;;;6.83;;
36243;SDS011;22284;49.956;19.816;2022-12-29T10:48:02;16.02;;;7.22;;
36243;SDS011;22284;49.956;19.816;2022-12-29T10:51:08;15.50;;;6.62;;
36243;SDS011;22284;49.956;19.816;2022-12-29T10:54:14;16.42;;;7.55;;
36243;SDS011;22284;49.956;19.816;2022-12-29T10:57:24;14.95;;;7.20;;
36243;SDS011;22284;49.956;19.816;2022-12-29T11:00:34;17.05;;;7.58;;
36243;SDS011;22284;49.956;19.816;2022-12-29T11:07:00;16.07;;;6.83;;
36243;SDS011;22284;49.956;19.816;2022-12-29T11:10:19;10.63;;;5.13;;
36243;SDS011;22284;49.956;19.816;2022-12-29T11:13:32;10.43;;;4.40;;
36243;SDS011;22284;49.956;19.816;2022-12-29T11:16:36;11.60;;;4.87;;
36243;SDS011;22284;49.956;19.816;2022-12-29T11:19:37;10.82;;;4.83;;
36243;SDS011;22284;49.956;19.816;2022-12-29T11:22:38;7.33;;;4.35;;
36243;SDS011;22284;49.956;19.816;2022-12-29T11:25:44;9.40;;;4.12;;
36243;SDS011;22284;49.956;19.816;2022-12-29T11:28:47;9.15;;;4.53;;
36243;SDS011;22284;49.956;19.816;2022-12-29T11:32:18;9.53;;;4.47;;
36243;SDS011;22284;49.956;19.816;2022-12-29T11:35:35;10.78;;;4.40;;
36243;SDS011;22284;49.956;19.816;2022-12-29T11:38:48;10.03;;;4.20;;
36243;SDS011;22284;49.956;19.816;2022-12-29T11:41:51;8.85;;;4.08;;
36243;SDS011;22284;49.956;19.816;2022-12-29T11:44:54;9.15;;;4.58;;
36243;SDS011;22284;49.956;19.816;2022-12-29T11:48:17;8.73;;;4.33;;
36243;SDS011;22284;49.956;19.816;2022-12-29T11:51:25;8.78;;;4.60;;
36243;SDS011;22284;49.956;19.816;2022-12-29T11:54:27;7.92;;;4.42;;
36243;SDS011;22284;49.956;19.816;2022-12-29T11:57:32;8.78;;;4.40;;
36243;SDS011;22284;49.956;19.816;2022-12-29T12:00:36;10.45;;;4.60;;
36243;SDS011;22284;49.956;19.816;2022-12-29T12:03:43;9.80;;;4.70;;
36243;SDS011;22284;49.956;19.816;2022-12-29T12:10:20;9.65;;;4.75;;
36243;SDS011;22284;49.956;19.816;2022-12-29T12:13:37;9.20;;;4.58;;
36243;SDS011;22284;49.956;19.816;2022-12-29T12:16:58;8.80;;;4.67;;
36243;SDS011;22284;49.956;19.816;2022-12-29T12:20:02;8.75;;;4.55;;
36243;SDS011;22284;49.956;19.816;2022-12-29T12:23:30;8.27;;;4.40;;
36243;SDS011;22284;49.956;19.816;2022-12-29T12:26:41;10.10;;;5.30;;
36243;SDS011;22284;49.956;19.816;2022-12-29T12:30:03;10.85;;;4.95;;
36243;SDS011;22284;49.956;19.816;2022-12-29T12:33:16;11.78;;;4.67;;
36243;SDS011;22284;49.956;19.816;2022-12-29T12:54:26;9.33;;;4.83;;
36243;SDS011;22284;49.956;19.816;2022-12-29T13:01:11;11.80;;;4.95;;
36243;SDS011;22284;49.956;19.816;2022-12-29T13:28:36;9.40;;;4.83;;
36243;SDS011;22284;49.956;19.816;2022-12-29T13:38:38;10.78;;;5.08;;
36243;SDS011;22284;49.956;19.816;2022-12-29T13:41:46;10.78;;;5.15;;
36243;SDS011;22284;49.956;19.816;2022-12-29T13:44:52;9.25;;;4.70;;
36243;SDS011;22284;49.956;19.816;2022-12-29T13:48:15;8.78;;;4.42;;
36243;SDS011;22284;49.956;19.816;2022-12-29T13:51:23;8.53;;;4.87;;
36243;SDS011;22284;49.956;19.816;2022-12-29T13:54:47;9.93;;;4.67;;
36243;SDS011;22284;49.956;19.816;2022-12-29T14:04:56;8.90;;;4.80;;
36243;SDS011;22284;49.956;19.816;2022-12-29T14:08:11;9.65;;;4.95;;
36243;SDS011;22284;49.956;19.816;2022-12-29T14:11:17;9.28;;;4.60;;
36243;SDS011;22284;49.956;19.816;2022-12-29T14:17:26;22.90;;;11.12;;
36243;SDS011;22284;49.956;19.816;2022-12-29T14:20:27;14.20;;;7.10;;
36243;SDS011;22284;49.956;19.816;2022-12-29T14:23:50;10.35;;;5.53;;
36243;SDS011;22284;49.956;19.816;2022-12-29T14:26:53;9.75;;;5.67;;
36243;SDS011;22284;49.956;19.816;2022-12-29T14:29:54;10.32;;;4.97;;
36243;SDS011;22284;49.956;19.816;2022-12-29T14:33:11;12.58;;;5.75;;
36243;SDS011;22284;49.956;19.816;2022-12-29T14:36:26;10.72;;;5.12;;
36243;SDS011;22284;49.956;19.816;2022-12-29T14:39:36;11.83;;;5.22;;
36243;SDS011;22284;49.956;19.816;2022-12-29T14:42:45;11.12;;;4.92;;
36243;SDS011;22284;49.956;19.816;2022-12-29T14:46:21;11.25;;;5.40;;
36243;SDS011;22284;49.956;19.816;2022-12-29T14:49:01;11.78;;;5.60;;
36243;SDS011;22284;49.956;19.816;2022-12-29T14:52:04;11.43;;;4.87;;
36243;SDS011;22284;49.956;19.816;2022-12-29T14:58:53;9.45;;;5.12;;
36243;SDS011;22284;49.956;19.816;2022-12-29T15:01:58;8.58;;;4.70;;
36243;SDS011;22284;49.956;19.816;2022-12-29T15:05:03;12.13;;;5.78;;
36243;SDS011;22284;49.956;19.816;2022-12-29T15:08:08;13.75;;;5.90;;
36243;SDS011;22284;49.956;19.816;2022-12-29T15:11:21;19.02;;;7.20;;
36243;SDS011;22284;49.956;19.816;2022-12-29T15:17:37;19.52;;;7.83;;
36243;SDS011;22284;49.956;19.816;2022-12-29T15:20:38;17.20;;;7.78;;
36243;SDS011;22284;49.956;19.816;2022-12-29T15:23:40;16.15;;;7.20;;
36243;SDS011;22284;49.956;19.816;2022-12-29T15:26:45;19.67;;;9.08;;
36243;SDS011;22284;49.956;19.816;2022-12-29T15:29:59;25.88;;;11.90;;
36243;SDS011;22284;49.956;19.816;2022-12-29T15:33:16;25.48;;;11.65;;
36243;SDS011;22284;49.956;19.816;2022-12-29T15:36:26;22.93;;;10.98;;
36243;SDS011;22284;49.956;19.816;2022-12-29T15:39:28;24.98;;;11.85;;
36243;SDS011;22284;49.956;19.816;2022-12-29T15:45:54;20.80;;;9.53;;
36243;SDS011;22284;49.956;19.816;2022-12-29T15:48:56;19.02;;;9.33;;
36243;SDS011;22284;49.956;19.816;2022-12-29T15:51:58;19.70;;;9.13;;
36243;SDS011;22284;49.956;19.816;2022-12-29T15:54:59;19.55;;;9.45;;
36243;SDS011;22284;49.956;19.816;2022-12-29T15:58:04;19.27;;;9.08;;
36243;SDS011;22284;49.956;19.816;2022-12-29T16:01:15;20.48;;;9.58;;
36243;SDS011;22284;49.956;19.816;2022-12-29T16:04:27;20.17;;;9.10;;
36243;SDS011;22284;49.956;19.816;2022-12-29T16:07:31;23.12;;;10.85;;
36243;SDS011;22284;49.956;19.816;2022-12-29T16:10:38;23.92;;;11.25;;
36243;SDS011;22284;49.956;19.816;2022-12-29T16:13:42;23.62;;;11.22;;
36243;SDS011;22284;49.956;19.816;2022-12-29T16:16:45;23.40;;;10.53;;
36243;SDS011;22284;49.956;19.816;2022-12-29T16:19:53;25.17;;;11.15;;
36243;SDS011;22284;49.956;19.816;2022-12-29T16:22:55;23.67;;;10.70;;
36243;SDS011;22284;49.956;19.816;2022-12-29T16:25:57;22.22;;;10.43;;
36243;SDS011;22284;49.956;19.816;2022-12-29T16:28:59;21.82;;;10.25;;
36243;SDS011;22284;49.956;19.816;2022-12-29T16:32:18;21.80;;;10.23;;
36243;SDS011;22284;49.956;19.816;2022-12-29T16:35:28;28.38;;;12.68;;
36243;SDS011;22284;49.956;19.816;2022-12-29T16:38:41;28.90;;;12.98;;
36243;SDS011;22284;49.956;19.816;2022-12-29T16:41:42;28.47;;;13.38;;
36243;SDS011;22284;49.956;19.816;2022-12-29T16:44:43;27.48;;;12.68;;
36243;SDS011;22284;49.956;19.816;2022-12-29T16:51:13;27.15;;;13.10;;
36243;SDS011;22284;49.956;19.816;2022-12-29T16:54:30;29.77;;;14.38;;
36243;SDS011;22284;49.956;19.816;2022-12-29T16:57:35;29.92;;;13.93;;
36243;SDS011;22284;49.956;19.816;2022-12-29T17:00:37;26.37;;;12.13;;
36243;SDS011;22284;49.956;19.816;2022-12-29T17:03:38;23.80;;;11.30;;
36243;SDS011;22284;49.956;19.816;2022-12-29T17:06:44;24.12;;;11.53;;
36243;SDS011;22284;49.956;19.816;2022-12-29T17:09:45;22.07;;;10.68;;
36243;SDS011;22284;49.956;19.816;2022-12-29T17:12:47;22.93;;;10.88;;
36243;SDS011;22284;49.956;19.816;2022-12-29T17:15:49;28.98;;;12.88;;
36243;SDS011;22284;49.956;19.816;2022-12-29T17:18:50;26.23;;;11.83;;
36243;SDS011;22284;49.956;19.816;2022-12-29T17:21:51;29.37;;;11.73;;
36243;SDS011;22284;49.956;19.816;2022-12-29T17:24:57;28.20;;;12.13;;
36243;SDS011;22284;49.956;19.816;2022-12-29T17:31:27;24.02;;;11.73;;
36243;SDS011;22284;49.956;19.816;2022-12-29T17:34:28;23.45;;;11.12;;
36243;SDS011;22284;49.956;19.816;2022-12-29T17:37:30;25.48;;;11.70;;
36243;SDS011;22284;49.956;19.816;2022-12-29T17:40:34;24.18;;;11.65;;
36243;SDS011;22284;49.956;19.816;2022-12-29T17:43:36;21.50;;;10.10;;
36243;SDS011;22284;49.956;19.816;2022-12-29T17:46:37;23.00;;;10.43;;
36243;SDS011;22284;49.956;19.816;2022-12-29T17:49:38;23.20;;;10.75;;
36243;SDS011;22284;49.956;19.816;2022-12-29T17:52:40;23.00;;;10.75;;
36243;SDS011;22284;49.956;19.816;2022-12-29T17:55:42;22.67;;;10.53;;
36243;SDS011;22284;49.956;19.816;2022-12-29T17:58:43;21.68;;;10.35;;
36243;SDS011;22284;49.956;19.816;2022-12-29T18:01:47;24.72;;;11.70;;
36243;SDS011;22284;49.956;19.816;2022-12-29T18:04:49;25.50;;;12.35;;
36243;SDS011;22284;49.956;19.816;2022-12-29T18:07:50;38.30;;;19.00;;
36243;SDS011;22284;49.956;19.816;2022-12-29T18:10:54;45.45;;;24.20;;
36243;SDS011;22284;49.956;19.816;2022-12-29T18:13:56;51.25;;;25.62;;
36243;SDS011;22284;49.956;19.816;2022-12-29T18:16:57;51.85;;;27.62;;
36243;SDS011;22284;49.956;19.816;2022-12-29T18:19:58;53.33;;;26.20;;
36243;SDS011;22284;49.956;19.816;2022-12-29T18:22:59;48.75;;;25.77;;
36243;SDS011;22284;49.956;19.816;2022-12-29T18:26:09;49.83;;;26.73;;
36243;SDS011;22284;49.956;19.816;2022-12-29T18:29:30;46.20;;;24.75;;
36243;SDS011;22284;49.956;19.816;2022-12-29T18:32:31;48.40;;;24.25;;
36243;SDS011;22284;49.956;19.816;2022-12-29T18:35:37;50.70;;;26.15;;
36243;SDS011;22284;49.956;19.816;2022-12-29T18:38:41;36.90;;;18.23;;
36243;SDS011;22284;49.956;19.816;2022-12-29T18:41:43;28.35;;;13.20;;
36243;SDS011;22284;49.956;19.816;2022-12-29T18:44:44;29.32;;;12.78;;
36243;SDS011;22284;49.956;19.816;2022-12-29T18:47:45;35.33;;;16.52;;
36243;SDS011;22284;49.956;19.816;2022-12-29T18:50:46;38.63;;;18.87;;
36243;SDS011;22284;49.956;19.816;2022-12-29T18:53:52;37.08;;;15.90;;
36243;SDS011;22284;49.956;19.816;2022-12-29T18:56:53;31.93;;;14.95;;
36243;SDS011;22284;49.956;19.816;2022-12-29T18:59:55;34.23;;;15.40;;
36243;SDS011;22284;49.956;19.816;2022-12-29T19:02:56;29.57;;;13.55;;
36243;SDS011;22284;49.956;19.816;2022-12-29T19:05:57;27.95;;;14.28;;
36243;SDS011;22284;49.956;19.816;2022-12-29T19:08:59;30.92;;;14.53;;
36243;SDS011;22284;49.956;19.816;2022-12-29T19:12:00;41.55;;;19.23;;
36243;SDS011;22284;49.956;19.816;2022-12-29T19:15:02;46.00;;;23.18;;
36243;SDS011;22284;49.956;19.816;2022-12-29T19:18:05;41.45;;;19.95;;
36243;SDS011;22284;49.956;19.816;2022-12-29T19:21:09;32.83;;;15.88;;
36243;SDS011;22284;49.956;19.816;2022-12-29T19:24:11;27.25;;;11.40;;
36243;SDS011;22284;49.956;19.816;2022-12-29T19:27:12;29.67;;;12.80;;
36243;SDS011;22284;49.956;19.816;2022-12-29T19:30:13;23.35;;;10.13;;
36243;SDS011;22284;49.956;19.816;2022-12-29T19:33:15;28.10;;;11.83;;
36243;SDS011;22284;49.956;19.816;2022-12-29T19:36:16;23.42;;;10.38;;
36243;SDS011;22284;49.956;19.816;2022-12-29T19:39:18;22.20;;;9.90;;
36243;SDS011;22284;49.956;19.816;2022-12-29T19:42:20;23.75;;;11.08;;
36243;SDS011;22284;49.956;19.816;2022-12-29T19:45:21;25.40;;;11.48;;
36243;SDS011;22284;49.956;19.816;2022-12-29T19:48:23;32.50;;;15.40;;
36243;SDS011;22284;49.956;19.816;2022-12-29T19:51:24;28.92;;;14.98;;
36243;SDS011;22284;49.956;19.816;2022-12-29T19:54:26;25.67;;;11.23;;
36243;SDS011;22284;49.956;19.816;2022-12-29T19:57:27;28.95;;;14.15;;
36243;SDS011;22284;49.956;19.816;2022-12-29T20:00:29;25.50;;;12.05;;
36243;SDS011;22284;49.956;19.816;2022-12-29T20:03:30;28.50;;;13.90;;
36243;SDS011;22284;49.956;19.816;2022-12-29T20:06:32;25.23;;;12.25;;
36243;SDS011;22284;49.956;19.816;2022-12-29T20:09:33;23.02;;;11.38;;
36243;SDS011;22284;49.956;19.816;2022-12-29T20:12:34;24.07;;;11.30;;
36243;SDS011;22284;49.956;19.816;2022-12-29T20:15:41;26.57;;;10.87;;
36243;SDS011;22284;49.956;19.816;2022-12-29T20:18:42;27.65;;;12.80;;
36243;SDS011;22284;49.956;19.816;2022-12-29T20:21:44;31.02;;;13.50;;
36243;SDS011;22284;49.956;19.816;2022-12-29T20:24:46;25.67;;;11.67;;
36243;SDS011;22284;49.956;19.816;2022-12-29T20:27:48;20.68;;;9.03;;
36243;SDS011;22284;49.956;19.816;2022-12-29T20:34:05;21.30;;;9.70;;
36243;SDS011;22284;49.956;19.816;2022-12-29T20:37:08;28.25;;;12.07;;